Aviation Digital Data Service (ADDS)

Output produced by METARs form (1259 UTC 18 January 2022)
found at http://www.aviationweather.gov/metar/data/
 
METAR text: CYYF 181200Z 20007KT 15SM OVC015 00/M03 A3001 RMK SC8 SLP179
Conditions at: CYYF (PENTICTON AIRPOR, BC, CA) observed 1200 UTC 18 January 2022
Temperature: 0.0°C (32°F)
Dewpoint: -3.0°C (27°F) [RH = 80%]
Pressure (altimeter): 30.01 inches Hg (1016.3 mb)
[Sea-level pressure: 1017.9 mb]
Winds: from the SSW (200 degrees) at 8 MPH (7 knots; 3.6 m/s)
Visibility: 15 miles (24 km)
Ceiling: 1500 feet AGL
Clouds: overcast cloud deck at 1500 feet AGL
Weather: no significant weather observed at this time

METAR text: CYYF 181100Z 17008KT 15SM OVC016 00/M03 A2999 RMK SC8 SLP172
Conditions at: CYYF (PENTICTON AIRPOR, BC, CA) observed 1100 UTC 18 January 2022
Temperature: 0.0°C (32°F)
Dewpoint: -3.0°C (27°F) [RH = 80%]
Pressure (altimeter): 29.99 inches Hg (1015.7 mb)
[Sea-level pressure: 1017.2 mb]
Winds: from the S (170 degrees) at 9 MPH (8 knots; 4.1 m/s)
Visibility: 15 miles (24 km)
Ceiling: 1600 feet AGL
Clouds: overcast cloud deck at 1600 feet AGL
Weather: no significant weather observed at this time

METAR text: CYYF 181000Z 17012KT 15SM OVC015 00/M03 A2998 RMK SC8 SLP168
Conditions at: CYYF (PENTICTON AIRPOR, BC, CA) observed 1000 UTC 18 January 2022
Temperature: 0.0°C (32°F)
Dewpoint: -3.0°C (27°F) [RH = 80%]
Pressure (altimeter): 29.98 inches Hg (1015.3 mb)
[Sea-level pressure: 1016.8 mb]
Winds: from the S (170 degrees) at 14 MPH (12 knots; 6.2 m/s)
Visibility: 15 miles (24 km)
Ceiling: 1500 feet AGL
Clouds: overcast cloud deck at 1500 feet AGL
Weather: no significant weather observed at this time

Forecast for: CYYF (PENTICTON AIRPOR, BC, CA)
Text: TAF CYYF 181240Z 1813/1901 19008KT P6SM OVC015
Forecast period: 1300 to 1900 UTC 18 January 2022
Forecast type: FROM: standard forecast or significant change
Winds: from the S (190 degrees) at 9 MPH (8 knots; 4.1 m/s)
Visibility: 6 or more miles (10+ km)
Ceiling: 1500 feet AGL
Clouds: overcast cloud deck at 1500 feet AGL
Weather: no significant weather forecast for this period
Text: TEMPO 1813/1819 4SM -SN
Forecast period: 1300 to 1900 UTC 18 January 2022
Forecast type: TEMPORARY: The following changes expected for less than half the time period
Visibility: 4 miles (6 km)
Ceiling: unknown
Clouds: missing
Weather: -SN  (light snow)
Text: FM181900 02008KT P6SM SCT020 BKN060 RMK NXT FCST BY 181900Z
Forecast period: 1900 UTC 18 January 2022 to 0100 UTC 19 January 2022
Forecast type: FROM: standard forecast or significant change
Winds: from the NNE (20 degrees) at 9 MPH (8 knots; 4.1 m/s)
Visibility: 6 or more miles (10+ km)
Ceiling: 6000 feet AGL
Clouds: scattered clouds at 2000 feet AGL
broken clouds at 6000 feet AGL
Weather: no significant weather forecast for this period